Time;durP1;ratioP1;P1;durP2;ratioP2;P2;SDS_P1;SDS_P2;PMS_P1;PMS_P2;Temp;Humidity;BMP_temperature;BMP_pressure;BME280_temperature;BME280_humidity;BME280_pressure;Samples;Min_cycle;Max_cycle;Signal;HPM_P1;HPM_P2
2023/02/26 00:09:22;;;;;;;5.80;2.10;;;1.30;99.90;;;;;;20888362;28;20036;-78
2023/02/26 00:19:23;;;;;;;2.83;1.60;;;1.30;99.90;;;;;;20860957;28;20481;-78
2023/02/26 00:29:24;;;;;;;5.53;2.47;;;1.20;99.90;;;;;;20777193;28;20083;-79
2023/02/26 00:40:07;;;;;;;6.55;2.58;;;1.10;99.90;;;;;;20823812;28;20076;-79
2023/02/26 00:50:23;;;;;;;4.20;2.25;;;0.90;99.90;;;;;;20790517;28;20025;-79
2023/02/26 01:00:24;;;;;;;5.97;2.35;;;0.70;99.90;;;;;;20804277;28;20030;-81
2023/02/26 01:10:25;;;;;;;6.32;2.10;;;0.60;99.90;;;;;;20742060;28;20070;-78
2023/02/26 01:20:31;;;;;;;3.83;2.30;;;0.40;99.90;;;;;;20808679;28;20037;-79
2023/02/26 01:30:33;;;;;;;6.00;2.30;;;0.30;99.90;;;;;;20841602;28;20036;-78
2023/02/26 01:40:42;;;;;;;9.65;1.95;;;0.20;99.90;;;;;;20904079;28;20032;-79
2023/02/26 01:50:44;;;;;;;2.50;1.80;;;0.10;99.90;;;;;;20903268;28;20492;-80
2023/02/26 02:00:44;;;;;;;2.97;1.73;;;0.00;99.90;;;;;;20920699;28;20079;-80
2023/02/26 02:10:47;;;;;;;4.85;2.13;;;-0.30;99.90;;;;;;20893777;28;20117;-80
2023/02/26 02:20:57;;;;;;;4.80;2.00;;;-0.30;99.90;;;;;;20801316;28;20037;-79
2023/02/26 02:31:17;;;;;;;4.17;2.03;;;-0.40;99.90;;;;;;20816762;28;20429;-78
2023/02/26 02:41:32;;;;;;;4.27;2.53;;;-0.40;99.90;;;;;;20815478;28;20124;-79
2023/02/26 02:52:02;;;;;;;5.40;2.30;;;-0.40;99.90;;;;;;20912133;28;20116;-78
2023/02/26 03:02:09;;;;;;;3.40;2.17;;;-0.50;99.90;;;;;;20906807;28;20115;-77
2023/02/26 03:12:09;;;;;;;3.45;2.13;;;-0.40;99.90;;;;;;20882044;28;20031;-78
2023/02/26 03:22:19;;;;;;;4.03;2.20;;;-0.50;99.90;;;;;;20811757;28;20039;-79
2023/02/26 03:32:50;;;;;;;2.38;1.90;;;-0.40;99.90;;;;;;20810774;28;20095;-79
2023/02/26 03:43:07;;;;;;;5.53;2.08;;;-0.50;99.90;;;;;;20810329;28;20029;-79
2023/02/26 03:53:12;;;;;;;4.22;2.05;;;-0.50;99.90;;;;;;20812398;28;20559;-78
2023/02/26 04:03:25;;;;;;;5.70;1.75;;;-0.60;99.90;;;;;;20808503;28;20096;-80
2023/02/26 04:13:27;;;;;;;3.92;1.48;;;-0.60;99.90;;;;;;20805337;28;20040;-80
2023/02/26 04:23:28;;;;;;;4.47;2.00;;;-0.70;99.90;;;;;;20771265;28;20025;-79
2023/02/26 04:33:32;;;;;;;4.22;1.77;;;-0.80;99.90;;;;;;20728242;28;20080;-79
2023/02/26 04:43:33;;;;;;;3.60;2.10;;;-0.80;99.90;;;;;;20744144;28;20060;-79
2023/02/26 04:54:06;;;;;;;3.83;2.05;;;-0.80;99.90;;;;;;20749053;28;20400;-80
2023/02/26 05:04:07;;;;;;;3.22;2.30;;;-0.80;99.90;;;;;;20740735;28;20095;-79
2023/02/26 05:14:08;;;;;;;5.82;1.88;;;-0.80;99.90;;;;;;20739331;28;20124;-79
2023/02/26 05:24:09;;;;;;;4.07;2.10;;;-0.80;99.90;;;;;;20738570;28;20045;-79
2023/02/26 05:34:10;;;;;;;2.13;1.70;;;-0.70;99.90;;;;;;20755326;28;20493;-79
2023/02/26 05:44:11;;;;;;;3.58;1.98;;;-0.80;99.90;;;;;;20782666;28;20037;-78
2023/02/26 05:54:11;;;;;;;4.75;2.17;;;-0.80;99.90;;;;;;20835608;28;20033;-78
2023/02/26 06:04:12;;;;;;;3.17;1.75;;;-0.90;99.90;;;;;;20833308;28;20033;-80
2023/02/26 06:14:13;;;;;;;5.90;2.42;;;-1.00;99.90;;;;;;20862173;28;20041;-79
2023/02/26 06:24:14;;;;;;;2.72;1.80;;;-1.10;99.90;;;;;;20956290;28;20078;-79
2023/02/26 06:34:14;;;;;;;4.72;1.98;;;-1.20;99.90;;;;;;20969273;28;20029;-78
2023/02/26 06:44:15;;;;;;;5.88;2.50;;;-1.20;99.90;;;;;;20938374;28;20058;-79
2023/02/26 06:54:16;;;;;;;5.40;2.05;;;-1.10;99.90;;;;;;20868583;28;20116;-79
2023/02/26 07:04:17;;;;;;;8.95;5.78;;;-0.70;99.90;;;;;;20873756;28;20573;-79
2023/02/26 07:14:18;;;;;;;2.58;1.90;;;-0.10;99.90;;;;;;20899600;28;20060;-78
2023/02/26 07:24:18;;;;;;;4.20;2.30;;;0.00;99.90;;;;;;20826562;28;20033;-79
2023/02/26 07:34:19;;;;;;;6.70;1.70;;;0.30;99.90;;;;;;20852670;28;20041;-79
2023/02/26 07:44:20;;;;;;;2.97;1.65;;;0.70;99.90;;;;;;20855408;28;20488;-79
2023/02/26 07:54:21;;;;;;;4.00;1.48;;;1.20;99.90;;;;;;20885657;28;20033;-78
2023/02/26 08:04:22;;;;;;;2.08;1.00;;;1.50;99.90;;;;;;20925247;28;20117;-78
2023/02/26 08:14:23;;;;;;;2.13;0.90;;;2.40;99.90;;;;;;20897175;28;20116;-78
2023/02/26 08:24:23;;;;;;;1.85;1.20;;;2.20;99.90;;;;;;20838876;28;20029;-78
2023/02/26 08:34:24;;;;;;;3.80;1.17;;;2.10;99.90;;;;;;20803398;28;20030;-79
2023/02/26 08:44:25;;;;;;;2.40;1.20;;;1.00;99.90;;;;;;20844752;28;20699;-78
2023/02/26 08:54:26;;;;;;;1.15;1.05;;;0.00;99.90;;;;;;20915606;28;20103;-78
2023/02/26 09:04:27;;;;;;;2.35;0.82;;;0.90;99.90;;;;;;20920645;28;20132;-77
2023/02/26 09:14:28;;;;;;;4.10;0.85;;;1.50;99.90;;;;;;20908179;28;20056;-79
2023/02/26 09:24:29;;;;;;;2.33;0.77;;;3.50;99.90;;;;;;20876072;28;20507;-78
2023/02/26 09:34:29;;;;;;;0.80;0.63;;;2.60;99.90;;;;;;20939638;28;20037;-79
2023/02/26 09:44:33;;;;;;;2.15;0.82;;;3.10;99.80;;;;;;20942711;28;20029;-77
2023/02/26 09:54:45;;;;;;;2.25;0.80;;;1.40;99.90;;;;;;20888147;28;20041;-77
2023/02/26 10:04:59;;;;;;;3.90;1.30;;;1.30;99.90;;;;;;20867382;28;20091;-79
2023/02/26 10:15:21;;;;;;;1.70;1.00;;;1.60;99.90;;;;;;20842715;28;20030;-78
2023/02/26 10:25:36;;;;;;;1.23;0.80;;;1.50;99.90;;;;;;20807298;28;20030;-78
2023/02/26 10:35:46;;;;;;;2.35;0.70;;;2.20;99.90;;;;;;20873061;28;20029;-79
2023/02/26 10:46:05;;;;;;;0.95;0.65;;;3.70;99.90;;;;;;20885760;28;20036;-77
2023/02/26 10:56:20;;;;;;;2.55;0.80;;;2.90;98.70;;;;;;20887447;28;20033;-79
2023/02/26 11:06:27;;;;;;;3.15;0.80;;;2.40;99.00;;;;;;20886187;28;20045;-78
2023/02/26 11:16:28;;;;;;;1.13;0.77;;;1.80;99.30;;;;;;20853922;28;20030;-76
2023/02/26 11:26:34;;;;;;;1.02;0.85;;;1.20;99.90;;;;;;20837621;28;20033;-77
2023/02/26 11:36:38;;;;;;;2.95;0.85;;;1.30;99.90;;;;;;20817428;28;20021;-77
2023/02/26 11:46:51;;;;;;;1.60;0.82;;;2.10;99.90;;;;;;20834958;28;20041;-78
2023/02/26 11:57:00;;;;;;;0.93;0.90;;;4.50;99.90;;;;;;20864747;28;20026;-79
2023/02/26 12:07:01;;;;;;;1.88;1.10;;;3.00;99.60;;;;;;20869392;28;20403;-79
2023/02/26 12:17:32;;;;;;;1.77;1.13;;;2.90;99.90;;;;;;20869152;28;20075;-79
2023/02/26 12:27:59;;;;;;;0.70;0.70;;;1.80;99.90;;;;;;20850272;28;20040;-78
2023/02/26 12:38:33;;;;;;;6.05;1.23;;;3.90;99.90;;;;;;20823220;28;20095;-79
2023/02/26 12:48:42;;;;;;;2.15;1.25;;;3.00;99.90;;;;;;20808982;28;20033;-80
2023/02/26 12:58:48;;;;;;;1.48;0.90;;;2.50;99.90;;;;;;20813117;28;20053;-80
2023/02/26 13:08:58;;;;;;;1.80;1.30;;;2.90;99.90;;;;;;20863555;28;20475;-80
2023/02/26 13:19:30;;;;;;;1.38;1.02;;;2.50;99.90;;;;;;20867859;28;20021;-81
2023/02/26 13:30:12;;;;;;;4.82;1.40;;;2.90;99.90;;;;;;20924413;28;20402;-80
2023/02/26 13:40:22;;;;;;;1.40;1.20;;;2.50;99.90;;;;;;20858008;28;20493;-80
2023/02/26 13:50:42;;;;;;;1.30;1.20;;;1.50;99.90;;;;;;20907815;28;20030;-81
2023/02/26 14:00:56;;;;;;;3.53;1.40;;;1.40;99.90;;;;;;20804678;28;20039;-79
2023/02/26 14:11:04;;;;;;;1.67;1.25;;;1.50;99.90;;;;;;20841699;28;20036;-82
2023/02/26 14:21:24;;;;;;;4.80;1.50;;;1.80;99.90;;;;;;20846915;28;20084;-80
2023/02/26 14:31:25;;;;;;;3.70;1.63;;;1.50;99.90;;;;;;20845882;28;20450;-80
2023/02/26 14:41:35;;;;;;;7.15;1.52;;;2.70;99.90;;;;;;20849545;28;20030;-81
2023/02/26 14:51:55;;;;;;;2.42;1.92;;;1.20;99.90;;;;;;20838224;28;20044;-81
2023/02/26 15:02:27;;;;;;;3.30;1.90;;;0.80;99.90;;;;;;20803799;28;20044;-81
2023/02/26 15:12:36;;;;;;;2.53;1.90;;;0.90;99.90;;;;;;20799296;28;20053;-81
2023/02/26 15:22:43;;;;;;;2.83;1.70;;;1.80;99.90;;;;;;20844543;28;20414;-80
2023/02/26 15:32:45;;;;;;;4.07;2.75;;;2.20;99.90;;;;;;20856873;28;20045;-80
2023/02/26 15:42:52;;;;;;;3.05;1.90;;;2.30;99.90;;;;;;20874024;28;20029;-79
2023/02/26 15:52:55;;;;;;;3.80;2.70;;;1.60;99.90;;;;;;20881502;28;20125;-78
2023/02/26 16:02:57;;;;;;;3.90;2.10;;;1.00;99.90;;;;;;20855448;28;20542;-79
2023/02/26 16:12:59;;;;;;;2.83;1.80;;;1.40;99.90;;;;;;20851783;28;20029;-79
2023/02/26 16:23:09;;;;;;;3.70;2.90;;;1.60;99.90;;;;;;20803105;28;20029;-80
2023/02/26 16:33:16;;;;;;;6.10;2.27;;;0.30;99.90;;;;;;20790928;28;20037;-79
2023/02/26 16:43:22;;;;;;;2.90;2.33;;;0.30;99.90;;;;;;20836374;28;20052;-81
2023/02/26 16:53:35;;;;;;;2.70;1.80;;;0.40;99.90;;;;;;20831350;28;20041;-80
2023/02/26 17:03:37;;;;;;;3.70;2.42;;;0.60;99.90;;;;;;20811647;28;20121;-80
2023/02/26 17:13:40;;;;;;;1.40;1.30;;;0.60;99.90;;;;;;20881687;28;20045;-79
2023/02/26 17:23:41;;;;;;;3.42;2.20;;;0.60;99.90;;;;;;20889006;28;20045;-80
2023/02/26 17:33:43;;;;;;;5.57;2.58;;;0.70;99.90;;;;;;20848797;28;20120;-79
2023/02/26 17:43:44;;;;;;;1.73;1.50;;;0.60;99.90;;;;;;20876794;28;20052;-78
2023/02/26 17:53:45;;;;;;;2.38;1.33;;;0.40;99.90;;;;;;20833501;28;20029;-79
2023/02/26 18:03:46;;;;;;;1.58;1.38;;;0.40;99.90;;;;;;20836043;28;20030;-78
2023/02/26 18:13:47;;;;;;;5.95;1.60;;;0.40;99.90;;;;;;20811789;28;20041;-79
2023/02/26 18:23:47;;;;;;;2.03;1.70;;;0.50;99.90;;;;;;20824122;28;20032;-78
2023/02/26 18:33:48;;;;;;;1.95;1.15;;;0.60;99.90;;;;;;20846771;28;20034;-79
2023/02/26 18:43:49;;;;;;;2.65;1.55;;;0.50;99.90;;;;;;20855642;28;20025;-81
2023/02/26 18:53:50;;;;;;;1.70;1.27;;;0.30;99.90;;;;;;20857060;28;20030;-79
2023/02/26 19:03:50;;;;;;;1.85;1.30;;;0.10;99.90;;;;;;20777896;28;20124;-79
2023/02/26 19:13:51;;;;;;;4.05;1.42;;;0.10;99.90;;;;;;20779938;28;20496;-78
2023/02/26 19:23:53;;;;;;;1.77;1.30;;;0.10;99.90;;;;;;20811742;28;20481;-80
2023/02/26 19:33:53;;;;;;;4.30;1.70;;;0.20;99.90;;;;;;20792612;28;20033;-78
2023/02/26 19:43:54;;;;;;;1.38;1.13;;;0.20;99.90;;;;;;20819569;28;20504;-80
2023/02/26 19:53:55;;;;;;;5.15;1.33;;;0.30;99.90;;;;;;20851045;28;20055;-79
2023/02/26 20:03:56;;;;;;;2.17;1.23;;;0.20;99.90;;;;;;20846813;28;20045;-77
2023/02/26 20:13:57;;;;;;;2.15;1.60;;;0.30;99.90;;;;;;20803305;28;20053;-78
2023/02/26 20:23:57;;;;;;;4.82;1.70;;;0.30;99.90;;;;;;20803957;28;20029;-80
2023/02/26 20:33:59;;;;;;;5.50;2.17;;;0.30;99.90;;;;;;20809465;28;20066;-78
2023/02/26 20:43:59;;;;;;;6.53;1.95;;;0.30;99.90;;;;;;20825627;28;20485;-79
2023/02/26 20:54:00;;;;;;;4.32;2.03;;;0.40;99.90;;;;;;20838319;28;20030;-79
2023/02/26 21:04:04;;;;;;;2.55;1.45;;;0.30;99.90;;;;;;20848451;28;20061;-80
2023/02/26 21:14:07;;;;;;;2.03;1.45;;;0.30;99.90;;;;;;20804739;28;20029;-80
2023/02/26 21:24:07;;;;;;;4.55;1.73;;;0.30;99.90;;;;;;20853519;28;20030;-79
2023/02/26 21:34:08;;;;;;;2.70;1.95;;;0.40;99.90;;;;;;20825925;28;20042;-80
2023/02/26 21:44:09;;;;;;;2.50;1.98;;;0.40;99.90;;;;;;20880952;28;20041;-80
2023/02/26 21:54:11;;;;;;;2.47;1.55;;;0.40;99.90;;;;;;20886694;28;20040;-79
2023/02/26 22:04:12;;;;;;;2.75;1.70;;;0.30;99.90;;;;;;20845323;28;20124;-79
2023/02/26 22:14:13;;;;;;;3.67;2.10;;;0.30;99.90;;;;;;20856253;28;20132;-79
2023/02/26 22:24:13;;;;;;;2.45;1.50;;;0.30;99.90;;;;;;20875539;28;20040;-79
2023/02/26 22:34:14;;;;;;;2.92;1.85;;;0.30;99.90;;;;;;20883607;28;20017;-78
2023/02/26 22:44:15;;;;;;;3.13;1.58;;;0.30;99.90;;;;;;20882037;28;20402;-79
2023/02/26 22:54:16;;;;;;;6.03;1.80;;;0.20;99.90;;;;;;20866056;28;20072;-79
2023/02/26 23:04:17;;;;;;;2.83;1.90;;;0.20;99.90;;;;;;20848146;28;20037;-79
2023/02/26 23:14:18;;;;;;;3.83;2.08;;;0.20;99.90;;;;;;20826056;28;20170;-80
2023/02/26 23:24:18;;;;;;;3.40;1.90;;;0.20;99.90;;;;;;20845091;28;20053;-77
2023/02/26 23:34:19;;;;;;;2.17;1.60;;;0.10;99.90;;;;;;20827604;28;20037;-80
2023/02/26 23:44:21;;;;;;;3.17;1.73;;;0.00;99.90;;;;;;20811557;28;20037;-79
2023/02/26 23:54:21;;;;;;;2.53;2.08;;;0.10;99.90;;;;;;20810151;28;20037;-80
